Time;durP1;ratioP1;P1;durP2;ratioP2;P2;SDS_P1;SDS_P2;PMS_P1;PMS_P2;Temp;Humidity;BMP_temperature;BMP_pressure;BME280_temperature;BME280_humidity;BME280_pressure;Samples;Min_cycle;Max_cycle;Signal;HPM_P1;HPM_P2
2023/01/02 00:01:11;;;;;;;11.93;5.83;;;9.90;75.80;9.70;96772.00;;;;5033557;28;20774;-87
2023/01/02 00:03:38;;;;;;;9.20;6.30;;;9.80;75.60;9.70;96784.00;;;;5035117;28;20311;-86
2023/01/02 00:06:06;;;;;;;16.27;6.63;;;9.80;75.50;9.70;96794.00;;;;5034526;28;20197;-87
2023/01/02 00:08:34;;;;;;;7.60;6.63;;;9.80;75.60;9.60;96787.00;;;;5034167;28;20212;-85
2023/01/02 00:11:01;;;;;;;56.23;9.70;;;9.80;75.40;9.60;96784.00;;;;5031440;28;20685;-86
2023/01/02 00:13:29;;;;;;;10.83;6.33;;;9.70;75.40;9.60;96785.00;;;;5032188;28;20200;-86
2023/01/02 00:15:56;;;;;;;28.27;8.13;;;9.70;75.40;9.50;96784.00;;;;5033232;28;20231;-86
2023/01/02 00:18:24;;;;;;;20.20;6.93;;;9.80;75.20;9.50;96781.00;;;;5031504;28;20933;-85
2023/01/02 00:20:51;;;;;;;25.90;6.47;;;9.60;75.30;9.50;96773.00;;;;5033092;28;20229;-85
2023/01/02 00:23:18;;;;;;;13.43;6.23;;;9.60;75.30;9.40;96776.00;;;;5034267;28;20307;-85
2023/01/02 00:25:47;;;;;;;29.77;7.23;;;9.60;75.40;9.40;96775.00;;;;5035001;28;20547;-85
2023/01/02 00:28:15;;;;;;;29.03;7.50;;;9.60;75.30;9.30;96767.00;;;;5035593;28;20290;-85
2023/01/02 00:30:43;;;;;;;24.97;7.37;;;9.50;75.30;9.30;96767.00;;;;5037102;28;20211;-86
2023/01/02 00:33:11;;;;;;;8.83;6.13;;;9.50;75.30;9.30;96756.00;;;;5039274;28;20320;-86
2023/01/02 00:35:38;;;;;;;12.43;6.87;;;9.50;75.20;9.30;96761.00;;;;5039162;28;20237;-86
2023/01/02 00:38:05;;;;;;;8.60;5.87;;;9.40;75.20;9.20;96744.00;;;;5038801;28;20201;-86
2023/01/02 00:40:33;;;;;;;10.87;6.30;;;9.40;75.10;9.20;96753.00;;;;5037693;28;20325;-87
2023/01/02 00:43:00;;;;;;;26.87;7.70;;;9.40;75.20;9.10;96757.00;;;;5038627;28;20643;-85
2023/01/02 00:45:27;;;;;;;11.80;6.23;;;9.30;75.10;9.10;96756.00;;;;5039813;28;20721;-86
2023/01/02 00:47:56;;;;;;;14.23;6.13;;;9.30;75.20;9.10;96755.00;;;;5038951;28;20259;-86
2023/01/02 00:50:23;;;;;;;8.80;5.70;;;9.30;75.20;9.00;96754.00;;;;5037973;28;20615;-85
2023/01/02 00:52:50;;;;;;;19.77;7.27;;;9.20;75.10;9.00;96750.00;;;;5038064;28;20323;-87
2023/01/02 00:55:17;;;;;;;9.83;5.70;;;9.20;75.10;9.00;96749.00;;;;5039651;28;20304;-85
2023/01/02 00:57:45;;;;;;;54.97;8.10;;;9.20;75.20;8.90;96747.00;;;;5038319;28;20204;-85
2023/01/02 01:00:14;;;;;;;9.67;5.53;;;9.10;75.10;8.90;96753.00;;;;5039934;28;20215;-85
2023/01/02 01:02:41;;;;;;;6.07;5.30;;;9.10;75.50;8.90;96757.00;;;;5038214;28;20205;-88
2023/01/02 01:05:10;;;;;;;10.37;5.80;;;9.10;75.80;8.90;96758.00;;;;5039071;28;20235;-85
2023/01/02 01:07:37;;;;;;;6.37;5.77;;;9.10;75.80;8.90;96756.00;;;;5037244;28;20215;-85
2023/01/02 01:10:05;;;;;;;28.33;7.27;;;9.10;75.70;8.90;96771.00;;;;5039244;28;20295;-85
2023/01/02 01:12:32;;;;;;;14.57;5.97;;;9.00;75.60;8.80;96760.00;;;;5037849;28;20756;-86
2023/01/02 01:14:59;;;;;;;27.60;6.63;;;9.00;75.60;8.80;96756.00;;;;5038268;28;20229;-87
2023/01/02 01:17:26;;;;;;;7.90;5.60;;;9.00;75.50;8.80;96756.00;;;;5040918;28;20305;-87
2023/01/02 01:19:53;;;;;;;10.67;5.47;;;9.00;76.20;8.80;96759.00;;;;5036507;28;20236;-87
2023/01/02 01:22:22;;;;;;;17.60;6.10;;;9.00;75.40;8.80;96757.00;;;;5039781;28;20288;-85
2023/01/02 01:24:49;;;;;;;11.50;5.60;;;8.90;75.30;8.70;96767.00;;;;5039337;28;20666;-86
2023/01/02 01:27:16;;;;;;;15.23;6.43;;;8.90;75.50;8.70;96768.00;;;;5036163;28;20827;-85
2023/01/02 01:29:43;;;;;;;17.40;5.70;;;8.90;75.50;8.70;96769.00;;;;5037137;28;20542;-85
2023/01/02 01:32:11;;;;;;;6.87;5.33;;;8.90;75.50;8.70;96778.00;;;;5037938;28;20248;-86
2023/01/02 01:34:38;;;;;;;16.00;6.30;;;8.80;75.50;8.70;96770.00;;;;5037343;28;20311;-85
2023/01/02 01:37:05;;;;;;;9.00;6.07;;;8.80;75.60;8.70;96768.00;;;;5038499;28;20283;-85
2023/01/02 01:39:33;;;;;;;25.53;6.13;;;8.80;75.80;8.60;96760.00;;;;5036590;28;20236;-86
2023/01/02 01:42:02;;;;;;;8.00;5.97;;;8.80;75.70;8.60;96753.00;;;;5036459;28;20200;-85
2023/01/02 01:44:44;;;;;;;15.80;5.73;;;8.80;75.70;8.60;96755.00;;;;5037126;28;20312;-85
2023/01/02 01:47:25;;;;;;;19.13;6.50;;;8.80;75.60;8.60;96748.00;;;;5038830;28;20467;-86
2023/01/02 01:50:02;;;;;;;7.40;5.23;;;8.80;75.70;8.60;96744.00;;;;5037906;28;20288;-85
2023/01/02 01:52:34;;;;;;;11.53;6.17;;;8.80;75.80;8.60;96746.00;;;;5038536;28;20228;-85
2023/01/02 01:55:10;;;;;;;25.17;5.93;;;8.70;75.70;8.60;96755.00;;;;5035025;28;20220;-88
2023/01/02 01:57:43;;;;;;;8.50;5.83;;;8.70;75.80;8.60;96749.00;;;;5039366;28;20227;-85
2023/01/02 02:00:13;;;;;;;10.30;5.40;;;8.70;75.90;8.50;96763.00;;;;5039037;28;20201;-86
2023/01/02 02:02:46;;;;;;;6.20;5.07;;;8.70;75.90;8.50;96748.00;;;;5038936;28;20279;-85
2023/01/02 02:05:21;;;;;;;6.70;5.37;;;8.70;76.10;8.50;96746.00;;;;5039356;28;20223;-85
2023/01/02 02:07:59;;;;;;;6.70;5.47;;;8.80;76.30;8.50;96745.00;;;;5042699;28;20234;-85
2023/01/02 02:10:27;;;;;;;4.80;4.27;;;8.70;76.40;8.50;96748.00;;;;5041493;28;20299;-85
2023/01/02 02:12:54;;;;;;;7.70;5.10;;;8.70;76.60;8.50;96748.00;;;;5036412;28;20228;-85
2023/01/02 02:15:35;;;;;;;33.13;6.13;;;8.70;76.70;8.50;96745.00;;;;5038185;28;20316;-87
2023/01/02 02:18:23;;;;;;;9.67;5.13;;;8.70;76.70;8.60;96739.00;;;;5037703;28;20326;-85
2023/01/02 02:20:59;;;;;;;6.67;4.80;;;8.70;76.80;8.60;96744.00;;;;5038888;28;20231;-85
2023/01/02 02:24:09;;;;;;;12.03;5.13;;;8.70;76.60;8.60;96740.00;;;;5038915;28;20868;-87
2023/01/02 02:27:25;;;;;;;11.37;5.20;;;8.70;76.40;8.50;96743.00;;;;5036781;28;20207;-86
2023/01/02 02:30:22;;;;;;;15.03;5.37;;;8.70;76.40;8.50;96735.00;;;;4962832;28;20306;-85
2023/01/02 02:33:14;;;;;;;5.10;4.60;;;8.70;76.40;8.50;96732.00;;;;5001018;28;20713;-85
2023/01/02 02:36:03;;;;;;;12.10;5.13;;;8.70;76.50;8.50;96721.00;;;;5039469;28;20227;-85
2023/01/02 02:38:54;;;;;;;5.70;4.87;;;8.70;76.40;8.50;96719.00;;;;5036747;28;20584;-86
2023/01/02 02:41:33;;;;;;;17.03;5.80;;;8.70;77.10;8.50;96723.00;;;;5036057;28;20203;-85
2023/01/02 02:44:31;;;;;;;12.07;5.83;;;8.70;76.40;8.50;96730.00;;;;5037567;28;20307;-86
2023/01/02 02:47:07;;;;;;;43.47;6.63;;;8.70;76.40;8.50;96725.00;;;;5036127;28;20204;-85
2023/01/02 02:49:54;;;;;;;7.87;5.63;;;8.60;76.20;8.50;96721.00;;;;5037527;28;20304;-85
2023/01/02 02:52:28;;;;;;;14.07;5.77;;;8.60;76.80;8.40;96728.00;;;;5037254;28;20579;-85
2023/01/02 02:55:05;;;;;;;13.70;5.20;;;8.60;76.10;8.40;96723.00;;;;5036719;28;20234;-86
2023/01/02 02:57:35;;;;;;;8.83;4.97;;;8.60;76.90;8.40;96724.00;;;;5037416;28;20311;-85
2023/01/02 03:00:08;;;;;;;6.50;4.70;;;8.60;76.20;8.40;96724.00;;;;5035326;28;20284;-85
2023/01/02 03:02:36;;;;;;;5.97;5.17;;;8.60;76.30;8.40;96716.00;;;;5035601;28;20197;-86
2023/01/02 03:05:10;;;;;;;6.83;5.43;;;8.60;76.20;8.40;96713.00;;;;5035193;28;20605;-85
2023/01/02 03:07:46;;;;;;;8.70;5.30;;;8.60;76.10;8.40;96708.00;;;;5036546;28;20232;-85
2023/01/02 03:10:30;;;;;;;12.30;5.87;;;8.50;76.00;8.40;96701.00;;;;5034806;28;20284;-86
2023/01/02 03:13:10;;;;;;;9.03;5.07;;;8.50;76.00;8.30;96698.00;;;;5034007;28;20336;-85
2023/01/02 03:15:47;;;;;;;32.53;6.37;;;8.50;76.10;8.30;96696.00;;;;5036085;28;20302;-85
2023/01/02 03:18:29;;;;;;;13.43;5.33;;;8.50;76.20;8.30;96698.00;;;;5034577;28;20295;-85
2023/01/02 03:21:04;;;;;;;5.97;4.73;;;8.50;76.90;8.30;96688.00;;;;5036595;28;20196;-86
2023/01/02 03:23:39;;;;;;;6.87;5.00;;;8.70;76.40;8.30;96691.00;;;;5036591;28;20284;-85
2023/01/02 03:26:07;;;;;;;6.10;4.93;;;8.50;76.20;8.30;96688.00;;;;5035245;28;20205;-85
2023/01/02 03:28:38;;;;;;;5.10;4.50;;;8.50;76.20;8.30;96692.00;;;;5035085;28;20280;-85
2023/01/02 03:31:09;;;;;;;6.60;5.13;;;8.50;76.20;8.30;96692.00;;;;5035469;28;20280;-87
2023/01/02 03:33:44;;;;;;;6.70;5.30;;;8.50;76.10;8.30;96690.00;;;;5034739;28;20272;-85
2023/01/02 03:36:21;;;;;;;6.57;5.20;;;8.40;76.10;8.30;96681.00;;;;5035751;28;20716;-86
2023/01/02 03:38:59;;;;;;;6.20;5.20;;;8.40;76.20;8.20;96676.00;;;;5034851;28;20290;-86
2023/01/02 03:41:32;;;;;;;11.00;5.57;;;8.40;76.40;8.20;96680.00;;;;5036252;28;20203;-87
2023/01/02 03:44:03;;;;;;;16.13;6.20;;;8.40;76.60;8.20;96675.00;;;;5036641;28;20307;-86
2023/01/02 03:46:38;;;;;;;20.37;5.63;;;8.40;76.60;8.20;96673.00;;;;5035361;28;20228;-85
2023/01/02 03:49:14;;;;;;;7.07;5.43;;;8.40;76.50;8.20;96677.00;;;;5033828;28;20210;-85
2023/01/02 03:51:41;;;;;;;10.33;5.97;;;8.40;76.50;8.20;96675.00;;;;5035076;28;20574;-85
2023/01/02 03:54:10;;;;;;;19.07;6.00;;;8.40;76.40;8.20;96672.00;;;;5034175;28;20316;-85
2023/01/02 03:56:48;;;;;;;12.70;5.83;;;8.40;76.60;8.20;96679.00;;;;5036464;28;20228;-86
2023/01/02 03:59:28;;;;;;;15.33;5.10;;;8.40;76.60;8.20;96673.00;;;;5036378;28;20224;-86
2023/01/02 04:02:04;;;;;;;16.60;5.73;;;8.40;76.50;8.20;96681.00;;;;5036172;28;20291;-86
2023/01/02 04:04:40;;;;;;;6.33;4.80;;;8.40;76.50;8.20;96682.00;;;;5035950;28;20664;-85
2023/01/02 04:07:13;;;;;;;27.00;6.60;;;8.40;76.40;8.10;96670.00;;;;5039080;28;20598;-85
2023/01/02 04:09:44;;;;;;;9.00;5.43;;;8.30;76.20;8.10;96666.00;;;;5040301;28;20214;-85
2023/01/02 04:12:19;;;;;;;7.97;5.00;;;8.30;76.20;8.10;96670.00;;;;5038812;28;20200;-86
2023/01/02 04:14:52;;;;;;;5.50;4.73;;;8.30;76.20;8.10;96658.00;;;;5039068;28;20232;-85
2023/01/02 04:17:24;;;;;;;16.50;5.47;;;8.30;76.10;8.10;96663.00;;;;5038991;28;20254;-85
2023/01/02 04:19:58;;;;;;;25.77;6.33;;;8.30;76.10;8.10;96662.00;;;;5039350;28;20269;-85
2023/01/02 04:22:30;;;;;;;11.13;5.03;;;8.30;76.20;8.10;96663.00;;;;5039705;28;20231;-85
2023/01/02 04:25:08;;;;;;;17.50;5.60;;;8.30;76.40;8.10;96667.00;;;;5040183;28;20741;-85
2023/01/02 04:27:42;;;;;;;7.53;5.37;;;8.20;76.40;8.00;96661.00;;;;5038232;28;20258;-85
2023/01/02 04:30:10;;;;;;;9.13;5.50;;;8.20;76.40;8.00;96669.00;;;;5039835;28;20279;-86
2023/01/02 04:32:42;;;;;;;24.17;5.77;;;8.20;76.40;8.10;96670.00;;;;5038775;28;20256;-85
2023/01/02 04:35:15;;;;;;;28.20;6.53;;;8.20;76.40;8.00;96674.00;;;;5037095;28;20225;-84
2023/01/02 04:37:44;;;;;;;6.43;5.10;;;8.20;76.40;8.00;96677.00;;;;5038883;28;20292;-86
2023/01/02 04:40:19;;;;;;;8.00;5.33;;;8.30;76.50;8.00;96675.00;;;;5039696;28;20228;-88
2023/01/02 04:42:46;;;;;;;6.90;5.37;;;8.20;76.40;8.00;96669.00;;;;5040731;28;20216;-85
2023/01/02 04:45:17;;;;;;;17.53;5.70;;;8.20;76.40;8.00;96672.00;;;;5042925;28;20251;-85
2023/01/02 04:47:45;;;;;;;16.23;5.90;;;8.20;76.50;8.00;96679.00;;;;5038411;28;20220;-85
2023/01/02 04:50:13;;;;;;;29.13;6.17;;;8.20;76.50;8.00;96679.00;;;;5037371;28;20287;-87
2023/01/02 04:52:40;;;;;;;7.83;4.97;;;8.20;76.50;8.00;96683.00;;;;5038720;28;20219;-85
2023/01/02 04:55:09;;;;;;;17.53;5.30;;;8.20;76.50;8.00;96686.00;;;;5038381;28;20226;-85
2023/01/02 04:57:37;;;;;;;8.90;5.50;;;8.20;76.40;8.00;96689.00;;;;5037874;28;20219;-86
2023/01/02 05:00:07;;;;;;;11.87;5.70;;;8.20;76.30;8.00;96691.00;;;;5050412;28;20201;-87
2023/01/02 05:02:35;;;;;;;11.13;5.00;;;8.20;76.30;8.00;96691.00;;;;5051599;28;20205;-88
2023/01/02 05:05:03;;;;;;;8.20;4.53;;;8.10;76.10;7.90;96684.00;;;;5045489;28;20217;-86
2023/01/02 05:07:33;;;;;;;16.57;5.20;;;8.10;76.10;7.90;96694.00;;;;5040577;28;20288;-85
2023/01/02 05:10:00;;;;;;;10.63;4.90;;;8.10;76.10;7.90;96691.00;;;;5039393;28;20201;-85
2023/01/02 05:12:27;;;;;;;16.43;6.03;;;8.10;76.10;7.90;96703.00;;;;5037951;28;20295;-87
2023/01/02 05:14:54;;;;;;;6.37;5.00;;;8.10;76.10;7.90;96692.00;;;;5038396;28;20299;-86
2023/01/02 05:17:21;;;;;;;5.90;4.60;;;8.10;76.10;7.90;96695.00;;;;5036195;28;20213;-85
2023/01/02 05:19:49;;;;;;;5.67;5.07;;;8.10;76.10;7.90;96697.00;;;;5037787;28;20629;-84
2023/01/02 05:25:01;;;;;;;20.73;5.87;;;8.00;76.10;7.80;96704.00;;;;5038018;28;20291;-86
2023/01/02 05:27:29;;;;;;;16.93;5.30;;;8.00;76.10;7.80;96706.00;;;;5037680;28;20288;-85
2023/01/02 05:29:56;;;;;;;9.53;4.67;;;8.00;76.10;7.80;96709.00;;;;5040935;28;20365;-85
2023/01/02 05:32:23;;;;;;;10.00;5.10;;;8.00;76.20;7.80;96714.00;;;;5037904;28;20256;-88
2023/01/02 05:34:50;;;;;;;24.13;5.67;;;8.00;76.10;7.80;96711.00;;;;5038002;28;20231;-86
2023/01/02 05:37:17;;;;;;;7.80;4.83;;;8.00;76.10;7.70;96707.00;;;;5036432;28;20634;-85
2023/01/02 05:39:44;;;;;;;5.27;4.77;;;7.90;76.10;7.70;96703.00;;;;5037929;28;20960;-86
2023/01/02 05:42:13;;;;;;;12.00;4.93;;;7.90;76.10;7.70;96706.00;;;;5037106;28;20706;-85
2023/01/02 05:44:40;;;;;;;5.63;4.17;;;7.90;76.10;7.70;96704.00;;;;5037121;28;20229;-85
2023/01/02 05:47:07;;;;;;;17.77;4.90;;;7.90;76.10;7.70;96694.00;;;;5036631;28;20865;-85
2023/01/02 05:49:34;;;;;;;8.33;4.77;;;7.90;76.10;7.70;96698.00;;;;5037344;28;20211;-85
2023/01/02 05:52:01;;;;;;;11.30;4.67;;;7.90;76.20;7.70;96702.00;;;;5039592;28;20283;-85
2023/01/02 05:54:28;;;;;;;5.93;4.27;;;7.90;76.20;7.70;96707.00;;;;5036942;28;20287;-87
2023/01/02 05:56:56;;;;;;;10.37;4.60;;;7.90;76.10;7.70;96712.00;;;;5038147;28;20287;-85
2023/01/02 05:59:25;;;;;;;26.53;5.00;;;7.90;76.10;7.60;96709.00;;;;5037384;28;20676;-86
2023/01/02 06:01:52;;;;;;;19.83;4.57;;;7.80;76.10;7.60;96714.00;;;;5037123;28;20212;-85
2023/01/02 06:04:19;;;;;;;5.87;3.90;;;7.80;76.20;7.60;96723.00;;;;5036714;28;20275;-85
2023/01/02 06:06:48;;;;;;;5.93;3.90;;;7.80;76.20;7.60;96708.00;;;;5037485;28;20219;-85
2023/01/02 06:09:17;;;;;;;5.43;4.07;;;7.80;76.10;7.60;96706.00;;;;5036209;28;20247;-85
2023/01/02 06:11:44;;;;;;;8.50;4.07;;;7.80;76.20;7.60;96707.00;;;;5037224;28;20236;-84
2023/01/02 06:14:11;;;;;;;5.03;4.07;;;7.80;76.50;7.60;96709.00;;;;5036716;28;20259;-85
2023/01/02 06:16:40;;;;;;;5.37;4.00;;;7.80;76.60;7.60;96716.00;;;;5037364;28;20213;-85
2023/01/02 06:19:08;;;;;;;6.13;4.30;;;7.80;76.40;7.60;96713.00;;;;5035187;28;20250;-87
2023/01/02 06:21:35;;;;;;;4.07;3.67;;;7.80;76.30;7.60;96712.00;;;;5038590;28;20280;-85
2023/01/02 06:24:02;;;;;;;7.67;4.50;;;7.80;76.10;7.60;96710.00;;;;5037230;28;20233;-85
2023/01/02 06:26:29;;;;;;;5.60;4.10;;;7.80;76.10;7.50;96708.00;;;;5037138;28;20316;-85
2023/01/02 06:28:57;;;;;;;4.73;4.23;;;7.70;76.10;7.50;96701.00;;;;5038799;28;20240;-87
2023/01/02 06:31:28;;;;;;;23.37;4.50;;;7.70;76.00;7.50;96709.00;;;;5037117;28;20232;-87
2023/01/02 06:33:58;;;;;;;7.07;4.17;;;7.70;76.10;7.50;96702.00;;;;5036359;28;20248;-85
2023/01/02 06:36:28;;;;;;;5.30;4.37;;;7.70;76.30;7.50;96706.00;;;;5037199;28;20658;-86
2023/01/02 06:38:55;;;;;;;8.00;4.07;;;7.70;76.40;7.50;96706.00;;;;5036212;28;20192;-85
2023/01/02 06:41:23;;;;;;;8.07;3.93;;;7.70;76.70;7.50;96701.00;;;;5036808;28;20202;-85
2023/01/02 06:43:51;;;;;;;13.13;4.40;;;7.70;77.40;7.50;96695.00;;;;5037242;28;21125;-85
2023/01/02 06:46:21;;;;;;;4.80;4.17;;;7.70;76.80;7.50;96703.00;;;;5034887;28;20287;-85
2023/01/02 06:48:49;;;;;;;12.00;4.30;;;7.70;76.70;7.50;96708.00;;;;5037954;28;20618;-85
2023/01/02 06:51:20;;;;;;;16.70;4.37;;;7.70;76.50;7.50;96711.00;;;;5036428;28;21182;-86
2023/01/02 06:53:48;;;;;;;6.70;4.10;;;7.60;76.30;7.50;96709.00;;;;5037767;28;20237;-85
2023/01/02 06:56:18;;;;;;;5.27;4.10;;;7.70;76.30;7.50;96707.00;;;;5037063;28;20281;-85
2023/01/02 06:58:46;;;;;;;6.17;4.10;;;7.70;76.10;7.40;96705.00;;;;5037092;28;20584;-85
2023/01/02 07:01:15;;;;;;;16.77;4.90;;;7.70;76.00;7.40;96707.00;;;;5035843;28;20292;-85
2023/01/02 07:03:43;;;;;;;4.47;4.07;;;7.60;75.90;7.40;96712.00;;;;5037155;28;20770;-86
2023/01/02 07:06:14;;;;;;;4.80;4.30;;;7.60;76.00;7.40;96701.00;;;;5035423;28;20296;-85
2023/01/02 07:08:43;;;;;;;5.00;3.87;;;7.60;75.90;7.30;96707.00;;;;5037488;28;20197;-85
2023/01/02 07:11:14;;;;;;;15.47;4.43;;;7.60;76.00;7.30;96709.00;;;;5037286;28;20295;-86
2023/01/02 07:13:43;;;;;;;21.97;4.77;;;7.60;76.00;7.30;96710.00;;;;5037002;28;20233;-85
2023/01/02 07:16:13;;;;;;;6.17;4.20;;;7.50;76.10;7.30;96709.00;;;;5034433;28;20304;-86
2023/01/02 07:18:41;;;;;;;14.60;4.70;;;7.50;76.20;7.30;96713.00;;;;5035669;28;20303;-85
2023/01/02 07:21:10;;;;;;;4.57;4.17;;;7.50;76.20;7.30;96718.00;;;;5036359;28;20243;-88
2023/01/02 07:23:37;;;;;;;11.30;4.87;;;7.50;76.20;7.30;96722.00;;;;5035033;28;20223;-86
2023/01/02 07:26:07;;;;;;;21.27;4.70;;;7.50;76.10;7.30;96716.00;;;;5037894;28;20223;-85
2023/01/02 07:28:35;;;;;;;9.27;4.53;;;7.50;76.10;7.30;96726.00;;;;5036403;28;20673;-85
2023/01/02 07:31:05;;;;;;;4.43;4.00;;;7.50;76.30;7.20;96725.00;;;;5037213;28;20288;-85
2023/01/02 07:33:34;;;;;;;11.10;5.07;;;7.50;76.30;7.20;96729.00;;;;5035610;28;20206;-89
2023/01/02 07:36:04;;;;;;;16.23;4.40;;;7.40;76.20;7.30;96723.00;;;;5035891;28;20302;-89
2023/01/02 07:38:32;;;;;;;5.93;4.10;;;7.40;76.40;7.30;96721.00;;;;5037058;28;20305;-88
2023/01/02 07:40:59;;;;;;;4.53;3.90;;;7.40;76.40;7.30;96729.00;;;;5038568;28;20646;-89
2023/01/02 07:43:28;;;;;;;5.53;3.80;;;7.50;76.50;7.40;96725.00;;;;5036240;28;20293;-88
2023/01/02 07:46:01;;;;;;;29.37;4.90;;;7.50;76.40;7.50;96723.00;;;;5035262;28;20201;-86
2023/01/02 07:48:29;;;;;;;16.70;4.43;;;7.50;76.40;7.50;96716.00;;;;5038096;28;20204;-88
2023/01/02 07:51:01;;;;;;;9.93;4.30;;;7.50;76.50;7.50;96719.00;;;;5040157;28;20394;-88
2023/01/02 07:53:28;;;;;;;4.73;3.73;;;7.60;76.70;7.60;96718.00;;;;5042007;28;20192;-89
2023/01/02 07:55:55;;;;;;;4.13;3.73;;;7.60;76.60;7.60;96724.00;;;;5044963;28;20197;-89
2023/01/02 07:58:23;;;;;;;5.33;4.13;;;7.60;76.50;7.60;96734.00;;;;5039096;28;20205;-89
2023/01/02 08:00:52;;;;;;;4.33;3.70;;;7.60;76.50;7.60;96735.00;;;;5039286;28;20694;-87
2023/01/02 08:03:20;;;;;;;3.73;3.33;;;7.60;76.50;7.70;96735.00;;;;5039107;28;20204;-88
2023/01/02 08:05:47;;;;;;;9.07;4.17;;;7.60;76.50;7.70;96741.00;;;;5040564;28;20247;-87
2023/01/02 08:08:14;;;;;;;4.40;4.00;;;7.60;76.60;7.70;96739.00;;;;5037994;28;20660;-89
2023/01/02 08:10:41;;;;;;;11.57;4.67;;;7.70;76.70;7.70;96747.00;;;;5035484;28;20207;-90
2023/01/02 08:13:08;;;;;;;5.77;4.43;;;7.70;76.90;7.80;96746.00;;;;5038484;28;20212;-88
2023/01/02 08:15:36;;;;;;;4.93;4.13;;;7.70;77.00;7.80;96745.00;;;;5038712;28;20316;-86
2023/01/02 08:18:05;;;;;;;21.23;5.20;;;7.70;77.00;7.80;96747.00;;;;5036867;28;20295;-87
2023/01/02 08:20:32;;;;;;;18.43;4.63;;;7.80;77.20;7.90;96740.00;;;;5035831;28;20713;-89
2023/01/02 08:23:00;;;;;;;4.93;4.10;;;7.80;77.30;7.90;96744.00;;;;5038178;28;20295;-87
2023/01/02 08:25:27;;;;;;;9.57;4.77;;;7.80;77.40;8.00;96752.00;;;;5034608;28;20667;-88
2023/01/02 08:27:54;;;;;;;7.00;4.40;;;7.90;77.60;8.00;96743.00;;;;5036088;28;20263;-88
2023/01/02 08:30:21;;;;;;;25.97;5.40;;;7.90;77.80;8.10;96753.00;;;;5037795;28;20291;-89
2023/01/02 08:32:48;;;;;;;7.40;4.40;;;8.00;78.00;8.10;96749.00;;;;5035995;28;20248;-88
2023/01/02 08:35:17;;;;;;;7.87;4.50;;;8.00;78.10;8.20;96757.00;;;;5035855;28;20229;-88
2023/01/02 08:37:44;;;;;;;4.73;4.07;;;8.10;78.20;8.30;96763.00;;;;5037249;28;20284;-89
2023/01/02 08:40:12;;;;;;;5.50;4.93;;;8.20;78.30;8.40;96765.00;;;;5035896;28;20721;-88
2023/01/02 08:42:42;;;;;;;5.87;5.23;;;8.20;78.30;8.50;96767.00;;;;5037139;28;20223;-89
2023/01/02 08:45:10;;;;;;;6.93;4.83;;;8.30;78.50;8.50;96764.00;;;;5033907;28;20299;-88
2023/01/02 08:47:37;;;;;;;26.43;6.63;;;8.30;78.60;8.60;96767.00;;;;5037046;28;20251;-89
2023/01/02 08:50:06;;;;;;;29.23;6.03;;;8.40;78.70;8.70;96770.00;;;;5036933;28;20236;-90
2023/01/02 08:52:34;;;;;;;5.77;4.80;;;8.50;78.80;8.70;96772.00;;;;5041720;28;20208;-90
2023/01/02 08:55:04;;;;;;;8.50;4.87;;;8.60;79.00;8.80;96777.00;;;;5040233;28;20319;-88
2023/01/02 08:57:31;;;;;;;10.87;5.60;;;8.60;79.00;8.90;96782.00;;;;5038631;28;20243;-89
2023/01/02 08:59:58;;;;;;;6.00;5.30;;;8.70;79.20;8.90;96783.00;;;;5038784;28;20637;-89
2023/01/02 09:02:25;;;;;;;11.83;5.33;;;8.80;79.40;9.00;96785.00;;;;5037635;28;20235;-90
2023/01/02 09:05:01;;;;;;;5.67;5.10;;;8.80;79.50;9.10;96788.00;;;;5040593;28;20311;-90
2023/01/02 09:07:31;;;;;;;7.00;5.77;;;8.90;79.70;9.20;96793.00;;;;5037901;28;20295;-90
2023/01/02 09:09:59;;;;;;;6.03;5.43;;;9.00;79.70;9.30;96782.00;;;;5038822;28;20288;-89
2023/01/02 09:12:27;;;;;;;6.27;5.67;;;9.10;79.90;9.40;96791.00;;;;5039530;28;20227;-90
2023/01/02 09:14:54;;;;;;;7.83;5.23;;;9.20;80.10;9.50;96790.00;;;;5037793;28;20282;-91
2023/01/02 09:17:21;;;;;;;6.37;5.77;;;9.30;80.10;9.60;96798.00;;;;5040161;28;20251;-88
2023/01/02 09:19:48;;;;;;;8.20;5.13;;;9.40;80.20;9.70;96794.00;;;;5038527;28;20232;-89
2023/01/02 09:22:15;;;;;;;5.67;5.17;;;9.40;80.20;9.80;96801.00;;;;5038625;28;21067;-90
2023/01/02 09:24:42;;;;;;;5.90;5.30;;;9.50;80.20;9.90;96807.00;;;;5039193;28;20316;-89
2023/01/02 09:27:11;;;;;;;11.50;5.70;;;9.60;80.30;9.90;96804.00;;;;5037552;28;20287;-88
2023/01/02 09:29:38;;;;;;;4.97;4.57;;;9.70;80.30;10.00;96803.00;;;;5040222;28;20299;-89
2023/01/02 09:32:05;;;;;;;10.37;5.30;;;9.80;80.40;10.10;96803.00;;;;5037832;28;20217;-90
2023/01/02 09:34:33;;;;;;;5.50;5.00;;;9.90;80.60;10.20;96804.00;;;;5037369;28;20311;-87
2023/01/02 09:37:00;;;;;;;6.53;4.57;;;10.00;80.60;10.30;96805.00;;;;5032837;28;20275;-87
2023/01/02 09:39:27;;;;;;;5.90;4.97;;;10.00;80.60;10.40;96802.00;;;;5031406;28;20244;-91
2023/01/02 09:41:58;;;;;;;6.73;4.80;;;10.20;80.80;10.60;96789.00;;;;5035503;28;20198;-88
2023/01/02 09:44:37;;;;;;;6.00;5.30;;;10.30;81.00;10.70;96796.00;;;;5033495;28;20216;-89
2023/01/02 09:47:11;;;;;;;6.27;4.80;;;10.40;81.10;10.90;96798.00;;;;5029669;28;20193;-89
2023/01/02 09:49:46;;;;;;;14.03;5.40;;;10.50;81.20;11.00;96796.00;;;;5037521;28;20224;-88
2023/01/02 09:52:19;;;;;;;17.00;5.87;;;10.70;81.50;11.20;96812.00;;;;5036902;28;20223;-89
2023/01/02 09:54:47;;;;;;;5.53;5.00;;;10.80;81.60;11.40;96822.00;;;;5036737;28;20228;-89
2023/01/02 09:57:38;;;;;;;5.83;5.00;;;11.00;81.80;11.60;96799.00;;;;5037936;28;20279;-88
2023/01/02 10:00:16;;;;;;;10.27;5.00;;;11.10;81.90;11.90;96800.00;;;;5037009;28;20208;-88
2023/01/02 10:03:01;;;;;;;5.83;4.97;;;11.40;82.50;12.10;96800.00;;;;5036645;28;20254;-89
2023/01/02 10:06:11;;;;;;;23.30;5.57;;;11.60;82.60;12.40;96793.00;;;;5038438;28;20232;-89
2023/01/02 10:08:58;;;;;;;5.40;4.80;;;11.90;82.60;12.70;96803.00;;;;5036309;28;20604;-89
2023/01/02 10:11:48;;;;;;;5.73;4.90;;;12.20;82.60;12.90;96799.00;;;;5036515;28;20644;-88
2023/01/02 10:14:26;;;;;;;6.87;5.90;;;12.40;82.40;13.10;96799.00;;;;5037228;28;20221;-88
2023/01/02 10:16:59;;;;;;;6.87;5.80;;;12.70;82.20;13.30;96789.00;;;;5036240;28;20203;-86
2023/01/02 10:19:37;;;;;;;5.87;5.27;;;13.00;81.70;13.50;96782.00;;;;5036638;28;20730;-88
2023/01/02 10:22:09;;;;;;;7.20;5.30;;;13.20;80.60;13.70;96788.00;;;;5036633;28;20633;-89
2023/01/02 10:24:44;;;;;;;6.53;5.27;;;13.40;80.00;13.90;96797.00;;;;5037935;28;20283;-89
2023/01/02 10:27:17;;;;;;;7.13;4.60;;;13.60;79.60;14.10;96788.00;;;;5036517;28;20197;-89
2023/01/02 10:29:52;;;;;;;6.90;5.17;;;13.80;79.40;14.20;96782.00;;;;5036650;28;20294;-89
2023/01/02 10:32:24;;;;;;;6.20;4.90;;;13.90;79.00;14.40;96794.00;;;;5037270;28;20213;-89
2023/01/02 10:35:09;;;;;;;5.13;4.63;;;14.10;79.00;14.60;96777.00;;;;5037898;28;20216;-88
2023/01/02 10:37:36;;;;;;;7.73;5.10;;;14.30;78.00;14.80;96780.00;;;;5037973;28;20206;-89
2023/01/02 10:40:05;;;;;;;6.37;5.23;;;14.50;77.60;14.90;96776.00;;;;5039688;28;20267;-90
2023/01/02 10:42:33;;;;;;;6.43;5.40;;;14.60;76.40;15.00;96773.00;;;;5042045;28;20652;-88
2023/01/02 10:45:01;;;;;;;6.27;5.40;;;14.70;75.30;15.10;96774.00;;;;5036369;28;20774;-89
2023/01/02 10:47:35;;;;;;;8.23;4.60;;;14.80;74.50;15.10;96774.00;;;;5040532;28;20205;-90
2023/01/02 10:50:06;;;;;;;6.10;5.43;;;14.90;73.80;15.10;96774.00;;;;5055159;28;20219;-90
2023/01/02 10:52:39;;;;;;;6.00;5.20;;;14.90;73.60;15.20;96759.00;;;;5045252;28;20227;-90
2023/01/02 10:55:07;;;;;;;5.83;4.90;;;15.00;73.60;15.20;96769.00;;;;5041158;28;20318;-89
2023/01/02 10:57:42;;;;;;;14.87;6.23;;;15.00;73.60;15.20;96765.00;;;;5042928;28;20229;-90
2023/01/02 11:00:29;;;;;;;5.70;5.00;;;15.00;73.30;15.20;96763.00;;;;5038061;28;20217;-90
2023/01/02 11:03:00;;;;;;;27.47;6.80;;;15.10;71.90;15.20;96772.00;;;;5036575;28;20201;-89
2023/01/02 11:05:31;;;;;;;9.13;5.50;;;15.00;72.80;15.20;96785.00;;;;5042138;28;20273;-88
2023/01/02 11:07:59;;;;;;;8.23;5.83;;;15.00;72.90;15.20;96786.00;;;;5040178;28;20284;-89
2023/01/02 11:10:30;;;;;;;4.87;4.43;;;15.00;72.70;15.20;96773.00;;;;5041071;28;20689;-89
2023/01/02 11:13:01;;;;;;;8.90;5.43;;;15.00;73.50;15.30;96775.00;;;;5040591;28;20197;-89
2023/01/02 11:15:33;;;;;;;4.87;4.37;;;15.00;73.50;15.30;96773.00;;;;5037299;28;20664;-89
2023/01/02 11:18:11;;;;;;;16.30;5.50;;;15.00;72.40;15.30;96776.00;;;;5037081;28;20205;-90
2023/01/02 11:20:38;;;;;;;5.47;4.50;;;15.10;72.40;15.30;96777.00;;;;5036494;28;20223;-90
2023/01/02 11:23:06;;;;;;;5.10;4.60;;;15.10;72.70;15.40;96779.00;;;;5035473;28;20198;-90
2023/01/02 11:25:41;;;;;;;10.83;5.30;;;15.10;72.60;15.40;96769.00;;;;5037341;28;20657;-89